Terminal Aerodrome Forecast
Issued by NWS Raleigh/Durham, NC

Home | Current Version | Previous Version | Text Only | Print | Product List | Glossary On
Versions: 1 2 3 4 5 6 7 8 9 10 11 12 13 14 15 16 17 18 19 20 21 22 23 24 25 26 27 28
000
FTUS42 KRAH 231734
TAFFAY
TAF
KFAY 231734Z 2318/2418 06005KT P6SM SCT035 BKN080
      TEMPO 2320/2324 3SM -TSRA BKN025CB
     FM240800 06006KT 5SM BR OVC007
     FM241600 06010G16KT P6SM BKN030=

USA.gov is the U.S. government's official web portal to all federal, state and local government web resources and services.